createdAt,value
2022-10-01T00:00:21.988Z,11.22
2022-10-01T00:01:22.009Z,11.27
2022-10-01T00:02:21.996Z,11.26
2022-10-01T00:03:22.034Z,11.14
2022-10-01T00:04:22.010Z,11.26
2022-10-01T00:05:22.006Z,11.19
2022-10-01T00:06:22.010Z,11.29
2022-10-01T00:07:22.015Z,11.25
2022-10-01T00:08:22.025Z,11.26
2022-10-01T00:09:22.033Z,11.22
2022-10-01T00:10:22.032Z,11.23
2022-10-01T00:11:22.036Z,11.25
2022-10-01T00:12:22.075Z,11.29
2022-10-01T00:13:22.055Z,11.25
2022-10-01T00:14:22.051Z,11.18
2022-10-01T00:15:22.061Z,11.32
2022-10-01T00:16:22.135Z,11.26
2022-10-01T00:17:22.074Z,11.25
2022-10-01T00:18:22.073Z,11.22
2022-10-01T00:19:22.086Z,11.25
2022-10-01T00:20:22.089Z,11.26
2022-10-01T00:21:22.098Z,11.25
2022-10-01T00:22:22.102Z,11.35
2022-10-01T00:23:22.108Z,11.35
2022-10-01T00:24:22.112Z,11.33
2022-10-01T00:25:22.112Z,11.27
2022-10-01T00:26:22.114Z,11.35
2022-10-01T00:27:22.128Z,11.35
2022-10-01T00:28:22.199Z,11.37
2022-10-01T00:29:22.140Z,11.33
2022-10-01T00:30:22.138Z,11.37
2022-10-01T00:31:22.229Z,11.43
2022-10-01T00:32:22.156Z,11.40
2022-10-01T00:33:22.160Z,11.44
2022-10-01T00:34:22.159Z,11.33
2022-10-01T00:35:22.162Z,11.45
2022-10-01T00:36:22.171Z,11.48
2022-10-01T00:37:22.185Z,11.47
2022-10-01T00:38:22.181Z,11.47
2022-10-01T00:39:22.190Z,11.51
2022-10-01T00:40:22.191Z,11.52
2022-10-01T00:41:22.202Z,11.48
2022-10-01T00:42:22.204Z,11.48
2022-10-01T00:43:22.212Z,11.47
2022-10-01T00:44:22.239Z,11.50
2022-10-01T00:45:22.223Z,11.47
2022-10-01T00:46:22.278Z,11.52
2022-10-01T00:47:22.225Z,11.47
2022-10-01T00:48:22.234Z,11.47
2022-10-01T00:49:22.237Z,11.47
2022-10-01T00:50:22.248Z,11.44
2022-10-01T00:51:22.249Z,11.45
2022-10-01T00:52:22.259Z,11.37
2022-10-01T00:53:22.265Z,11.37
2022-10-01T00:54:22.270Z,11.36
2022-10-01T00:55:22.268Z,11.43
2022-10-01T00:56:22.273Z,11.43
2022-10-01T00:57:22.286Z,11.37
2022-10-01T00:58:22.289Z,11.45
2022-10-01T00:59:22.290Z,11.47
2022-10-01T01:00:22.405Z,11.51
2022-10-01T01:01:22.371Z,11.36
2022-10-01T01:02:22.322Z,11.35
2022-10-01T01:03:22.317Z,11.41
2022-10-01T01:04:22.313Z,11.40
2022-10-01T01:05:22.320Z,11.35
2022-10-01T01:06:22.330Z,11.36
2022-10-01T01:07:22.331Z,11.43
2022-10-01T01:08:22.335Z,11.44
2022-10-01T01:09:22.349Z,11.37
2022-10-01T01:10:22.345Z,11.43
2022-10-01T01:11:22.352Z,11.43
2022-10-01T01:12:22.365Z,11.51
2022-10-01T01:13:22.361Z,11.35
2022-10-01T01:14:22.375Z,11.35
2022-10-01T01:15:22.371Z,11.33
2022-10-01T01:16:22.475Z,11.30
2022-10-01T01:17:22.390Z,11.37
2022-10-01T01:18:22.389Z,11.41
2022-10-01T01:19:22.393Z,11.30
2022-10-01T01:20:22.405Z,11.33
2022-10-01T01:21:22.412Z,11.37
2022-10-01T01:22:22.427Z,11.36
2022-10-01T01:23:22.416Z,11.51
2022-10-01T01:24:22.427Z,11.48
2022-10-01T01:25:22.453Z,11.37
2022-10-01T01:26:22.438Z,11.37
2022-10-01T01:27:22.447Z,11.36
2022-10-01T01:28:22.544Z,11.37
2022-10-01T01:29:22.453Z,11.35
2022-10-01T01:30:22.455Z,11.41
2022-10-01T01:31:22.607Z,11.41
2022-10-01T01:32:22.480Z,11.44
2022-10-01T01:33:22.468Z,11.41
2022-10-01T01:34:22.472Z,11.35
2022-10-01T01:35:22.476Z,11.33
2022-10-01T01:36:22.480Z,11.19
2022-10-01T01:37:22.494Z,11.19
2022-10-01T01:38:22.497Z,11.22
2022-10-01T01:39:22.504Z,11.27
2022-10-01T01:40:22.508Z,11.23
2022-10-01T01:41:22.508Z,11.25
2022-10-01T01:42:22.519Z,11.23
2022-10-01T01:43:22.518Z,11.23
2022-10-01T01:44:22.528Z,11.22
2022-10-01T01:45:22.532Z,11.22
2022-10-01T01:46:22.606Z,11.29
2022-10-01T01:47:25.248Z,11.17
2022-10-01T01:48:22.551Z,11.33
2022-10-01T01:49:22.548Z,11.33
2022-10-01T01:50:22.554Z,11.35
2022-10-01T01:51:22.558Z,11.41
2022-10-01T01:52:22.562Z,11.43
2022-10-01T01:53:22.570Z,11.41
2022-10-01T01:54:22.580Z,11.41
2022-10-01T01:55:22.586Z,11.36
2022-10-01T01:56:22.591Z,11.32
2022-10-01T01:57:22.591Z,11.29
2022-10-01T01:58:22.593Z,11.36
2022-10-01T01:59:22.607Z,11.23
2022-10-01T02:00:22.617Z,11.27
2022-10-01T02:01:22.669Z,11.29
2022-10-01T02:02:22.689Z,11.30
2022-10-01T02:03:22.640Z,11.23
2022-10-01T02:04:22.626Z,11.18
2022-10-01T02:05:22.631Z,11.27
2022-10-01T02:06:22.643Z,11.23
2022-10-01T02:07:22.642Z,11.32
2022-10-01T02:08:22.650Z,11.33
2022-10-01T02:09:22.651Z,11.36
2022-10-01T02:10:22.660Z,11.33
2022-10-01T02:11:22.664Z,11.36
2022-10-01T02:12:22.677Z,11.40
2022-10-01T02:13:22.676Z,11.33
2022-10-01T02:14:22.685Z,11.51
2022-10-01T02:15:22.690Z,11.48
2022-10-01T02:16:22.752Z,11.45
2022-10-01T02:17:22.701Z,11.47
2022-10-01T02:18:22.700Z,11.55
2022-10-01T02:19:22.728Z,11.45
2022-10-01T02:20:22.707Z,11.54
2022-10-01T02:21:22.715Z,11.54
2022-10-01T02:22:22.717Z,11.51
2022-10-01T02:23:22.724Z,11.50
2022-10-01T02:24:22.736Z,11.51
2022-10-01T02:25:22.742Z,11.55
2022-10-01T02:26:22.738Z,11.51
2022-10-01T02:27:22.752Z,11.52
2022-10-01T02:28:22.936Z,11.57
2022-10-01T02:29:22.756Z,11.52
2022-10-01T02:30:22.766Z,11.55
2022-10-01T02:31:22.889Z,11.55
2022-10-01T02:32:22.769Z,11.52
2022-10-01T02:33:22.775Z,11.57
2022-10-01T02:34:22.791Z,11.60
2022-10-01T02:35:22.817Z,11.62
2022-10-01T02:36:22.797Z,11.59
2022-10-01T02:37:22.796Z,11.60
2022-10-01T02:38:22.801Z,11.59
2022-10-01T02:39:22.812Z,11.54
2022-10-01T02:40:22.811Z,11.59
2022-10-01T02:41:22.816Z,11.62
2022-10-01T02:42:22.828Z,11.59
2022-10-01T02:43:22.826Z,11.59
2022-10-01T02:44:22.833Z,11.52
2022-10-01T02:45:22.853Z,11.52
2022-10-01T02:46:22.894Z,11.51
2022-10-01T02:47:22.853Z,11.50
2022-10-01T02:48:22.861Z,11.51
2022-10-01T02:49:24.086Z,11.54
2022-10-01T02:50:22.863Z,11.48
2022-10-01T02:51:22.888Z,11.47
2022-10-01T02:52:22.873Z,11.48
2022-10-01T02:53:22.884Z,11.48
2022-10-01T02:54:22.883Z,11.48
2022-10-01T02:55:22.888Z,11.54
2022-10-01T02:56:22.890Z,11.52
2022-10-01T02:57:22.902Z,11.50
2022-10-01T02:58:22.900Z,11.50
2022-10-01T02:59:22.910Z,11.50
2022-10-01T03:00:22.911Z,11.50
2022-10-01T03:01:22.990Z,11.50
2022-10-01T03:02:22.958Z,11.54
2022-10-01T03:03:22.928Z,11.54
2022-10-01T03:04:22.939Z,11.50
2022-10-01T03:05:22.938Z,11.54
2022-10-01T03:06:22.943Z,11.52
2022-10-01T03:07:22.970Z,11.54
2022-10-01T03:08:22.954Z,11.54
2022-10-01T03:09:22.966Z,11.48
2022-10-01T03:10:22.962Z,11.52
2022-10-01T03:11:22.977Z,11.47
2022-10-01T03:12:22.975Z,11.45
2022-10-01T03:13:22.979Z,11.51
2022-10-01T03:14:22.992Z,11.48
2022-10-01T03:15:22.996Z,11.52
2022-10-01T03:16:23.047Z,11.52
2022-10-01T03:17:23.001Z,11.50
2022-10-01T03:18:23.014Z,11.51
2022-10-01T03:19:23.016Z,11.51
2022-10-01T03:20:23.016Z,11.48
2022-10-01T03:21:23.020Z,11.50
2022-10-01T03:22:23.036Z,11.45
2022-10-01T03:23:23.050Z,11.43
2022-10-01T03:24:23.037Z,11.43
2022-10-01T03:25:23.048Z,11.40
2022-10-01T03:26:23.054Z,11.33
2022-10-01T03:27:23.051Z,11.30
2022-10-01T03:28:23.091Z,11.41
2022-10-01T03:29:23.069Z,11.45
2022-10-01T03:30:23.077Z,11.41
2022-10-01T03:31:23.128Z,11.40
2022-10-01T03:32:23.083Z,11.40
2022-10-01T03:33:23.091Z,11.35
2022-10-01T03:34:23.093Z,11.30
2022-10-01T03:35:23.095Z,11.36
2022-10-01T03:36:23.097Z,11.36
2022-10-01T03:37:23.111Z,11.32
2022-10-01T03:38:23.116Z,11.27
2022-10-01T03:39:23.134Z,11.22
2022-10-01T03:40:23.127Z,11.26
2022-10-01T03:41:23.131Z,11.17
2022-10-01T03:42:23.133Z,11.19
2022-10-01T03:43:23.134Z,11.19
2022-10-01T03:44:23.138Z,11.18
2022-10-01T03:45:23.202Z,11.23
2022-10-01T03:46:23.147Z,11.26
2022-10-01T03:47:23.161Z,11.26
2022-10-01T03:48:23.168Z,11.26
2022-10-01T03:49:23.171Z,11.22
2022-10-01T03:50:23.178Z,11.32
2022-10-01T03:51:23.181Z,11.18
2022-10-01T03:52:23.181Z,11.19
2022-10-01T03:53:23.186Z,11.26
2022-10-01T03:54:23.199Z,11.25
2022-10-01T03:55:23.215Z,11.22
2022-10-01T03:56:23.201Z,11.23
2022-10-01T03:57:23.205Z,11.25
2022-10-01T03:58:23.214Z,11.23
2022-10-01T03:59:23.223Z,11.29
2022-10-01T04:00:23.222Z,11.23
2022-10-01T04:01:23.281Z,11.32
2022-10-01T04:02:23.385Z,11.18
2022-10-01T04:03:23.243Z,11.35
2022-10-01T04:04:23.242Z,11.33
2022-10-01T04:05:23.255Z,11.35
2022-10-01T04:06:23.251Z,11.32
2022-10-01T04:07:23.265Z,11.32
2022-10-01T04:08:24.490Z,11.32
2022-10-01T04:09:23.277Z,11.32
2022-10-01T04:10:23.272Z,11.32
2022-10-01T04:11:23.306Z,11.32
2022-10-01T04:12:23.284Z,11.29
2022-10-01T04:13:23.297Z,11.36
2022-10-01T04:14:23.293Z,11.32
2022-10-01T04:15:23.299Z,11.32
2022-10-01T04:16:23.325Z,11.35
2022-10-01T04:17:23.318Z,11.32
2022-10-01T04:18:23.323Z,11.36
2022-10-01T04:19:23.322Z,11.26
2022-10-01T04:20:23.325Z,11.22
2022-10-01T04:21:23.331Z,11.19
2022-10-01T04:22:23.337Z,11.27
2022-10-01T04:23:23.348Z,11.25
2022-10-01T04:24:23.356Z,11.29
2022-10-01T04:25:23.359Z,11.43
2022-10-01T04:26:23.358Z,11.30
2022-10-01T04:27:23.391Z,11.40
2022-10-01T04:28:23.487Z,11.37
2022-10-01T04:29:23.378Z,11.40
2022-10-01T04:30:23.383Z,11.32
2022-10-01T04:31:23.433Z,11.35
2022-10-01T04:32:23.389Z,11.32
2022-10-01T04:33:23.396Z,11.37
2022-10-01T04:34:23.406Z,11.40
2022-10-01T04:35:23.405Z,11.36
2022-10-01T04:36:23.416Z,11.36
2022-10-01T04:37:23.415Z,11.26
2022-10-01T04:38:23.831Z,11.19
2022-10-01T04:39:23.426Z,11.23
2022-10-01T04:40:24.038Z,11.25
2022-10-01T04:41:23.435Z,11.27
2022-10-01T04:42:23.448Z,11.22
2022-10-01T04:43:23.477Z,11.23
2022-10-01T04:44:23.452Z,11.22
2022-10-01T04:45:23.458Z,11.17
2022-10-01T04:46:23.527Z,11.07
2022-10-01T04:47:23.467Z,11.15
2022-10-01T04:48:23.878Z,11.12
2022-10-01T04:49:23.484Z,11.17
2022-10-01T04:50:23.482Z,11.11
2022-10-01T04:51:23.489Z,11.17
2022-10-01T04:52:23.703Z,11.14
2022-10-01T04:53:23.504Z,11.11
2022-10-01T04:54:23.512Z,11.22
2022-10-01T04:55:23.509Z,11.22
2022-10-01T04:56:23.533Z,11.17
2022-10-01T04:57:23.518Z,11.18
2022-10-01T04:58:23.521Z,11.15
2022-10-01T04:59:56.759Z,11.11
2022-10-01T05:00:23.539Z,11.12
2022-10-01T05:01:23.668Z,11.17
2022-10-01T05:02:23.592Z,11.10
2022-10-01T05:03:23.559Z,11.18
2022-10-01T05:04:23.557Z,11.17
2022-10-01T05:05:23.565Z,11.08
2022-10-01T05:06:23.561Z,11.10
2022-10-01T05:07:23.569Z,11.11
2022-10-01T05:08:23.577Z,11.22
2022-10-01T05:09:23.579Z,11.19
2022-10-01T05:10:23.587Z,11.17
2022-10-01T05:11:23.586Z,11.23
2022-10-01T05:12:24.644Z,11.22
2022-10-01T05:13:23.604Z,11.19
2022-10-01T05:14:23.602Z,11.19
2022-10-01T05:15:23.630Z,11.26
2022-10-01T05:16:23.668Z,11.19
2022-10-01T05:17:23.616Z,11.23
2022-10-01T05:18:23.629Z,11.18
2022-10-01T05:19:27.902Z,11.19
2022-10-01T05:20:23.639Z,11.11
2022-10-01T05:21:23.636Z,11.11
2022-10-01T05:22:23.641Z,11.17
2022-10-01T05:23:23.652Z,11.11
2022-10-01T05:24:23.660Z,11.15
2022-10-01T05:25:23.656Z,11.18
2022-10-01T05:26:23.863Z,11.08
2022-10-01T05:27:23.672Z,11.14
2022-10-01T05:28:23.809Z,11.17
2022-10-01T05:29:23.675Z,11.23
2022-10-01T05:30:23.686Z,11.26
2022-10-01T05:31:23.795Z,11.26
2022-10-01T05:32:23.689Z,11.26
2022-10-01T05:33:23.704Z,11.27
2022-10-01T05:34:23.698Z,11.22
2022-10-01T05:35:23.709Z,11.18
2022-10-01T05:36:23.719Z,11.30
2022-10-01T05:37:23.723Z,11.35
2022-10-01T05:38:23.726Z,11.35
2022-10-01T05:39:24.137Z,11.40
2022-10-01T05:40:23.729Z,11.36
2022-10-01T05:41:23.743Z,11.35
2022-10-01T05:42:23.747Z,11.33
2022-10-01T05:43:23.753Z,11.36
2022-10-01T05:44:23.751Z,11.41
2022-10-01T05:45:23.826Z,11.36
2022-10-01T05:46:23.761Z,11.33
2022-10-01T05:47:24.600Z,11.41
2022-10-01T05:48:23.772Z,11.36
2022-10-01T05:49:23.783Z,11.37
2022-10-01T05:50:23.782Z,11.40
2022-10-01T05:51:23.792Z,11.35
2022-10-01T05:52:57.002Z,11.50
2022-10-01T05:53:23.796Z,11.44
2022-10-01T05:54:23.808Z,11.52
2022-10-01T05:55:23.807Z,11.47
2022-10-01T05:56:23.813Z,11.51
2022-10-01T05:57:23.818Z,11.51
2022-10-01T05:58:23.831Z,11.54
2022-10-01T05:59:25.513Z,11.55
2022-10-01T06:00:23.835Z,11.51
2022-10-01T06:01:23.846Z,11.59
2022-10-01T06:02:23.954Z,11.66
2022-10-01T06:03:23.971Z,11.62
2022-10-01T06:04:23.862Z,11.60
2022-10-01T06:05:23.867Z,11.57
2022-10-01T06:06:23.862Z,11.62
2022-10-01T06:07:23.877Z,11.62
2022-10-01T06:08:23.881Z,11.63
2022-10-01T06:09:23.882Z,11.57
2022-10-01T06:10:23.892Z,11.62
2022-10-01T06:11:23.890Z,11.68
2022-10-01T06:12:23.895Z,11.68
2022-10-01T06:13:23.901Z,11.77
2022-10-01T06:14:23.912Z,11.73
2022-10-01T06:15:25.137Z,11.70
2022-10-01T06:16:24.011Z,11.83
2022-10-01T06:17:23.923Z,11.77
2022-10-01T06:18:23.932Z,11.77
2022-10-01T06:19:23.955Z,11.78
2022-10-01T06:20:23.940Z,11.81
2022-10-01T06:21:23.942Z,11.88
2022-10-01T06:22:23.945Z,11.80
2022-10-01T06:23:23.959Z,11.95
2022-10-01T06:24:23.965Z,11.94
2022-10-01T06:25:23.963Z,11.95
2022-10-01T06:26:23.974Z,11.95
2022-10-01T06:27:23.981Z,11.95
2022-10-01T06:28:24.024Z,11.99
2022-10-01T06:29:23.992Z,12.03
2022-10-01T06:30:23.991Z,11.99
2022-10-01T06:31:24.052Z,11.87
2022-10-01T06:32:24.005Z,12.00
2022-10-01T06:33:24.007Z,11.95
2022-10-01T06:34:24.008Z,12.02
2022-10-01T06:35:24.041Z,12.00
2022-10-01T06:36:24.019Z,11.97
2022-10-01T06:37:24.027Z,11.99
2022-10-01T06:38:24.029Z,11.99
2022-10-01T06:39:24.035Z,12.00
2022-10-01T06:40:24.049Z,12.02
2022-10-01T06:41:24.045Z,11.99
2022-10-01T06:42:24.062Z,12.04
2022-10-01T06:43:24.062Z,12.06
2022-10-01T06:44:24.062Z,11.99
2022-10-01T06:45:24.065Z,12.06
2022-10-01T06:46:24.154Z,11.87
2022-10-01T06:47:24.083Z,11.91
2022-10-01T06:48:24.090Z,11.94
2022-10-01T06:49:24.087Z,11.80
2022-10-01T06:50:24.100Z,11.86
2022-10-01T06:51:24.123Z,11.83
2022-10-01T06:52:24.104Z,11.77
2022-10-01T06:53:24.114Z,11.80
2022-10-01T06:54:24.120Z,11.70
2022-10-01T06:55:24.117Z,11.68
2022-10-01T06:56:24.131Z,11.69
2022-10-01T06:57:24.128Z,11.57
2022-10-01T06:58:24.131Z,11.62
2022-10-01T06:59:24.140Z,11.55
2022-10-01T07:00:24.142Z,11.55
2022-10-01T07:01:24.200Z,11.54
2022-10-01T07:02:24.218Z,11.45
2022-10-01T07:03:24.159Z,11.50
2022-10-01T07:04:24.169Z,11.47
2022-10-01T07:05:24.169Z,11.50
2022-10-01T07:06:24.170Z,11.50
2022-10-01T07:07:27.055Z,11.47
2022-10-01T07:08:24.180Z,11.51
2022-10-01T07:09:24.188Z,11.52
2022-10-01T07:10:24.273Z,11.50
2022-10-01T07:11:24.205Z,11.55
2022-10-01T07:12:24.208Z,11.54
2022-10-01T07:13:24.214Z,11.51
2022-10-01T07:14:24.212Z,11.51
2022-10-01T07:15:24.222Z,11.52
2022-10-01T07:16:24.313Z,11.60
2022-10-01T07:17:24.226Z,11.57
2022-10-01T07:18:24.231Z,11.66
2022-10-01T07:19:24.236Z,11.55
2022-10-01T07:20:24.349Z,11.59
2022-10-01T07:21:24.245Z,11.59
2022-10-01T07:22:24.263Z,11.65
2022-10-01T07:23:24.366Z,11.60
2022-10-01T07:24:24.261Z,11.57
2022-10-01T07:25:24.272Z,11.66
2022-10-01T07:26:24.270Z,11.59
2022-10-01T07:27:24.274Z,11.54
2022-10-01T07:28:24.350Z,11.54
2022-10-01T07:29:24.291Z,11.51
2022-10-01T07:30:24.349Z,11.62
2022-10-01T07:31:24.346Z,11.52
2022-10-01T07:32:24.298Z,11.54
2022-10-01T07:33:24.312Z,11.51
2022-10-01T07:34:24.310Z,11.57
2022-10-01T07:35:24.314Z,11.54
2022-10-01T07:36:24.330Z,11.48
2022-10-01T07:37:24.332Z,11.50
2022-10-01T07:38:24.327Z,11.50
2022-10-01T07:39:24.388Z,11.50
2022-10-01T07:40:24.376Z,11.55
2022-10-01T07:41:24.351Z,11.59
2022-10-01T07:42:24.353Z,11.50
2022-10-01T07:43:24.362Z,11.48
2022-10-01T07:44:24.363Z,11.59
2022-10-01T07:45:24.375Z,11.57
2022-10-01T07:46:24.373Z,11.55
2022-10-01T07:47:24.383Z,11.57
2022-10-01T07:48:24.385Z,11.57
2022-10-01T07:49:24.388Z,11.59
2022-10-01T07:50:24.576Z,11.52
2022-10-01T07:51:24.397Z,11.63
2022-10-01T07:52:24.403Z,11.59
2022-10-01T07:53:24.407Z,11.65
2022-10-01T07:54:24.412Z,11.60
2022-10-01T07:55:24.428Z,11.52
2022-10-01T07:56:24.423Z,11.63
2022-10-01T07:57:24.419Z,11.63
2022-10-01T07:58:24.507Z,11.65
2022-10-01T07:59:24.442Z,11.65
2022-10-01T08:00:24.583Z,11.62
2022-10-01T08:01:24.537Z,11.57
2022-10-01T08:02:24.460Z,11.60
2022-10-01T08:03:24.457Z,11.65
2022-10-01T08:04:24.453Z,11.57
2022-10-01T08:05:24.460Z,11.62
2022-10-01T08:06:25.734Z,11.63
2022-10-01T08:07:24.468Z,11.55
2022-10-01T08:08:24.485Z,11.65
2022-10-01T08:09:24.487Z,11.62
2022-10-01T08:10:24.492Z,11.55
2022-10-01T08:11:24.511Z,11.65
2022-10-01T08:12:24.493Z,11.63
2022-10-01T08:13:24.503Z,11.51
2022-10-01T08:14:24.511Z,11.48
2022-10-01T08:15:24.513Z,11.51
2022-10-01T08:16:24.542Z,11.48
2022-10-01T08:17:29.231Z,11.51
2022-10-01T08:18:24.529Z,11.37
2022-10-01T08:19:24.531Z,11.40
2022-10-01T08:20:24.529Z,11.36
2022-10-01T08:21:24.543Z,11.45
2022-10-01T08:22:24.546Z,11.32
2022-10-01T08:23:24.556Z,11.35
2022-10-01T08:24:24.549Z,11.47
2022-10-01T08:25:24.553Z,11.44
2022-10-01T08:26:24.562Z,11.45
2022-10-01T08:27:24.581Z,11.41
2022-10-01T08:28:24.635Z,11.47
2022-10-01T08:29:24.571Z,11.47
2022-10-01T08:30:24.583Z,11.47
2022-10-01T08:31:24.615Z,11.48
2022-10-01T08:32:24.585Z,11.51
2022-10-01T08:33:24.589Z,11.47
2022-10-01T08:34:24.598Z,11.51
2022-10-01T08:35:24.607Z,11.48
2022-10-01T08:36:24.608Z,11.48
2022-10-01T08:37:24.607Z,11.48
2022-10-01T08:38:24.611Z,11.48
2022-10-01T08:39:24.622Z,11.48
2022-10-01T08:40:24.620Z,11.51
2022-10-01T08:41:24.629Z,11.51
2022-10-01T08:42:24.634Z,11.55
2022-10-01T08:43:24.655Z,11.51
2022-10-01T08:44:24.639Z,11.59
2022-10-01T08:45:24.649Z,11.52
2022-10-01T08:46:24.656Z,11.59
2022-10-01T08:47:24.659Z,11.55
2022-10-01T08:48:24.657Z,11.55
2022-10-01T08:49:24.661Z,11.50
2022-10-01T08:50:24.674Z,11.52
2022-10-01T08:51:24.680Z,11.62
2022-10-01T08:52:24.684Z,11.52
2022-10-01T08:53:24.685Z,11.51
2022-10-01T08:54:24.691Z,11.55
2022-10-01T08:55:24.696Z,11.52
2022-10-01T08:56:24.696Z,11.52
2022-10-01T08:57:24.698Z,11.51
2022-10-01T08:58:24.700Z,11.52
2022-10-01T08:59:27.401Z,11.54
2022-10-01T09:00:24.712Z,11.51
2022-10-01T09:01:24.801Z,11.50
2022-10-01T09:02:24.719Z,11.48
2022-10-01T09:03:24.732Z,11.54
2022-10-01T09:04:24.760Z,11.54
2022-10-01T09:05:24.747Z,11.51
2022-10-01T09:06:24.746Z,11.47
2022-10-01T09:07:24.751Z,11.51
2022-10-01T09:08:24.757Z,11.47
2022-10-01T09:09:24.760Z,11.48
2022-10-01T09:10:24.762Z,11.54
2022-10-01T09:11:24.796Z,11.48
2022-10-01T09:12:24.767Z,11.33
2022-10-01T09:13:24.769Z,11.47
2022-10-01T09:14:24.779Z,11.37
2022-10-01T09:15:24.808Z,11.43
2022-10-01T09:16:24.853Z,11.44
2022-10-01T09:17:24.789Z,11.41
2022-10-01T09:18:24.790Z,11.36
2022-10-01T09:19:24.804Z,11.40
2022-10-01T09:20:24.806Z,11.44
2022-10-01T09:21:24.806Z,11.45
2022-10-01T09:22:24.810Z,11.50
2022-10-01T09:23:24.819Z,11.48
2022-10-01T09:24:24.826Z,11.36
2022-10-01T09:25:24.822Z,11.50
2022-10-01T09:26:25.833Z,11.37
2022-10-01T09:27:24.831Z,11.43
2022-10-01T09:28:24.934Z,11.47
2022-10-01T09:29:24.840Z,11.47
2022-10-01T09:30:24.846Z,11.48
2022-10-01T09:31:24.947Z,11.54
2022-10-01T09:32:24.861Z,11.54
2022-10-01T09:33:24.859Z,11.54
2022-10-01T09:34:24.868Z,11.50
2022-10-01T09:35:24.867Z,11.54
2022-10-01T09:36:24.881Z,11.54
2022-10-01T09:37:24.882Z,11.65
2022-10-01T09:38:24.889Z,11.57
2022-10-01T09:39:24.885Z,11.63
2022-10-01T09:40:24.898Z,11.59
2022-10-01T09:41:24.893Z,11.70
2022-10-01T09:42:24.906Z,11.75
2022-10-01T09:43:24.903Z,11.72
2022-10-01T09:45:25.116Z,11.77
2022-10-01T09:46:24.924Z,11.78
2022-10-01T09:47:24.953Z,11.72
2022-10-01T09:48:24.925Z,11.77
2022-10-01T09:49:24.930Z,11.75
2022-10-01T09:50:24.937Z,11.75
2022-10-01T09:51:24.948Z,11.78
2022-10-01T09:52:24.948Z,11.83
2022-10-01T09:53:24.953Z,11.80
2022-10-01T09:54:24.954Z,11.87
2022-10-01T09:55:24.960Z,11.80
2022-10-01T09:56:24.964Z,11.78
2022-10-01T09:57:24.975Z,11.84
2022-10-01T09:58:24.974Z,11.84
2022-10-01T09:59:24.988Z,11.83
2022-10-01T10:00:24.983Z,11.90
2022-10-01T10:01:24.989Z,11.91
2022-10-01T10:02:25.091Z,11.94
2022-10-01T10:03:25.119Z,11.99
2022-10-01T10:04:25.008Z,12.00
2022-10-01T10:05:25.015Z,12.10
2022-10-01T10:06:25.013Z,12.07
2022-10-01T10:07:25.018Z,12.02
2022-10-01T10:08:25.028Z,12.09
2022-10-01T10:09:25.028Z,12.04
2022-10-01T10:10:26.110Z,11.97
2022-10-01T10:11:25.036Z,12.02
2022-10-01T10:12:25.041Z,12.00
2022-10-01T10:13:25.053Z,12.00
2022-10-01T10:14:25.060Z,12.09
2022-10-01T10:15:25.062Z,12.07
2022-10-01T10:16:25.127Z,12.12
2022-10-01T10:17:25.066Z,12.15
2022-10-01T10:18:25.071Z,12.15
2022-10-01T10:19:25.093Z,12.18
2022-10-01T10:20:25.081Z,12.20
2022-10-01T10:21:25.086Z,12.21
2022-10-01T10:22:25.143Z,12.20
2022-10-01T10:23:25.095Z,12.18
2022-10-01T10:24:25.103Z,12.24
2022-10-01T10:25:25.116Z,12.20
2022-10-01T10:26:25.125Z,12.22
2022-10-01T10:27:25.519Z,12.31
2022-10-01T10:28:25.197Z,12.32
2022-10-01T10:29:25.124Z,12.32
2022-10-01T10:30:25.139Z,12.37
2022-10-01T10:31:25.186Z,12.43
2022-10-01T10:32:25.147Z,12.39
2022-10-01T10:33:25.147Z,12.50
2022-10-01T10:34:25.157Z,12.50
2022-10-01T10:35:25.178Z,12.47
2022-10-01T10:36:25.161Z,12.55
2022-10-01T10:37:25.178Z,12.62
2022-10-01T10:38:25.178Z,12.60
2022-10-01T10:39:25.185Z,12.60
2022-10-01T10:40:29.267Z,12.55
2022-10-01T10:41:25.398Z,12.57
2022-10-01T10:42:25.193Z,12.75
2022-10-01T10:43:25.201Z,12.73
2022-10-01T10:44:25.211Z,12.73
2022-10-01T10:45:25.221Z,12.79
2022-10-01T10:46:25.274Z,12.80
2022-10-01T10:47:25.229Z,12.75
2022-10-01T10:48:25.232Z,12.73
2022-10-01T10:49:25.232Z,12.72
2022-10-01T10:50:25.236Z,12.79
2022-10-01T10:51:25.315Z,12.78
2022-10-01T10:52:25.248Z,12.79
2022-10-01T10:53:25.261Z,12.80
2022-10-01T10:54:25.266Z,12.82
2022-10-01T10:55:25.284Z,12.91
2022-10-01T10:56:25.270Z,12.94
2022-10-01T10:57:25.285Z,12.87
2022-10-01T10:58:25.290Z,12.98
2022-10-01T10:59:25.292Z,12.95
2022-10-01T11:00:25.299Z,13.00
2022-10-01T11:01:25.336Z,13.03
2022-10-01T11:02:25.446Z,13.08
2022-10-01T11:03:25.315Z,13.11
2022-10-01T11:04:27.937Z,13.12
2022-10-01T11:05:25.321Z,13.04
2022-10-01T11:06:25.327Z,13.19
2022-10-01T11:07:25.367Z,13.27
2022-10-01T11:08:25.344Z,13.18
2022-10-01T11:09:25.344Z,13.22
2022-10-01T11:10:25.360Z,13.35
2022-10-01T11:11:25.361Z,13.41
2022-10-01T11:12:25.365Z,13.35
2022-10-01T11:13:25.371Z,13.42
2022-10-01T11:15:25.375Z,13.53
2022-10-01T11:16:25.442Z,13.42
2022-10-01T11:17:25.395Z,13.53
2022-10-01T11:18:25.403Z,13.54
2022-10-01T11:19:28.026Z,13.67
2022-10-01T11:20:25.412Z,13.77
2022-10-01T11:21:25.420Z,13.89
2022-10-01T11:22:25.422Z,13.85
2022-10-01T11:23:25.451Z,13.87
2022-10-01T11:24:28.859Z,13.90
2022-10-01T11:25:25.436Z,13.92
2022-10-01T11:26:25.447Z,13.96
2022-10-01T11:27:25.455Z,13.90
2022-10-01T11:28:25.500Z,13.90
2022-10-01T11:29:25.466Z,13.85
2022-10-01T11:30:25.473Z,13.90
2022-10-01T11:31:25.526Z,13.81
2022-10-01T11:32:25.479Z,13.89
2022-10-01T11:33:25.490Z,13.95
2022-10-01T11:34:25.495Z,13.90
2022-10-01T11:35:25.505Z,13.93
2022-10-01T11:36:25.502Z,13.87
2022-10-01T11:37:25.517Z,13.95
2022-10-01T11:38:25.522Z,13.87
2022-10-01T11:39:25.594Z,13.89
2022-10-01T11:40:25.526Z,13.89
2022-10-01T11:41:25.541Z,13.89
2022-10-01T11:42:25.537Z,13.89
2022-10-01T11:43:25.545Z,13.89
2022-10-01T11:44:25.560Z,13.92
2022-10-01T11:46:10.797Z,13.99
2022-10-01T11:47:08.104Z,13.96
2022-10-01T11:48:08.113Z,14.10
2022-10-01T11:49:08.125Z,14.05
2022-10-01T11:50:08.140Z,14.05
2022-10-01T11:51:08.130Z,14.11
2022-10-01T11:52:08.138Z,14.11
2022-10-01T11:53:08.150Z,14.12
2022-10-01T11:54:08.154Z,14.12
2022-10-01T11:55:08.201Z,14.12
2022-10-01T11:56:08.160Z,14.22
2022-10-01T11:57:11.396Z,14.26
2022-10-01T11:58:08.180Z,14.17
2022-10-01T11:59:08.179Z,14.20
2022-10-01T12:00:08.185Z,14.29
2022-10-01T12:01:08.202Z,14.33
2022-10-01T12:02:10.943Z,14.30
2022-10-01T12:03:10.825Z,14.35
2022-10-01T12:04:08.215Z,14.45
2022-10-01T12:05:08.278Z,14.55
2022-10-01T12:06:08.233Z,14.70
2022-10-01T12:07:10.852Z,14.78
2022-10-01T12:08:08.644Z,14.99
2022-10-01T12:09:10.872Z,15.10
2022-10-01T12:11:20.964Z,15.36
2022-10-01T12:13:50.962Z,15.65
2022-10-01T12:18:24.407Z,16.36
2022-10-01T12:19:24.420Z,16.72
2022-10-01T12:20:24.431Z,17.01
2022-10-01T12:21:25.449Z,17.38
2022-10-01T12:22:24.877Z,17.59
2022-10-01T12:27:33.640Z,18.28
2022-10-01T12:28:33.716Z,18.28
2022-10-01T12:29:33.640Z,18.23
2022-10-01T12:30:33.655Z,18.31
2022-10-01T12:31:33.782Z,18.38
2022-10-01T12:32:33.675Z,18.45
2022-10-01T12:33:33.689Z,18.47
2022-10-01T12:34:33.690Z,18.63
2022-10-01T12:35:33.711Z,18.71
2022-10-01T12:36:34.006Z,18.83
2022-10-01T12:37:33.733Z,18.86
2022-10-01T12:38:33.743Z,18.88
2022-10-01T12:39:33.749Z,18.84
2022-10-01T12:40:33.761Z,18.62
2022-10-01T12:41:33.778Z,18.55
2022-10-01T12:42:33.790Z,18.34
2022-10-01T12:43:33.847Z,18.20
2022-10-01T12:44:33.807Z,17.94
2022-10-01T12:45:33.818Z,17.72
2022-10-01T12:46:34.250Z,17.38
2022-10-01T12:47:33.846Z,17.20
2022-10-01T12:48:33.851Z,17.04
2022-10-01T12:49:33.870Z,16.87
2022-10-01T12:50:33.878Z,16.89
2022-10-01T12:51:33.888Z,16.68
2022-10-01T12:52:33.901Z,16.56
2022-10-01T12:53:33.907Z,16.54
2022-10-01T12:54:33.918Z,16.36
2022-10-01T12:55:33.919Z,16.33
2022-10-01T12:56:34.270Z,16.28
2022-10-01T12:57:33.947Z,16.33
2022-10-01T12:58:33.956Z,16.31
2022-10-01T12:59:33.981Z,16.21
2022-10-01T13:00:34.046Z,16.23
2022-10-01T13:01:34.031Z,16.28
2022-10-01T13:02:33.985Z,16.17
2022-10-01T13:03:33.997Z,16.24
2022-10-01T13:04:34.011Z,16.20
2022-10-01T13:05:34.013Z,16.28